sensor_id;sensor_type;location;lat;lon;timestamp;P1;durP1;ratioP1;P2;durP2;ratioP2
11084;SDS011;5596;46.826;8.650;2022-08-19T00:00:30;4.57;;;3.47;;
11084;SDS011;5596;46.826;8.650;2022-08-19T00:02:59;4.80;;;3.20;;
11084;SDS011;5596;46.826;8.650;2022-08-19T00:05:26;4.63;;;3.37;;
11084;SDS011;5596;46.826;8.650;2022-08-19T00:07:53;3.80;;;2.80;;
11084;SDS011;5596;46.826;8.650;2022-08-19T00:10:20;6.27;;;3.30;;
11084;SDS011;5596;46.826;8.650;2022-08-19T00:12:47;3.60;;;3.30;;
11084;SDS011;5596;46.826;8.650;2022-08-19T00:15:15;7.17;;;3.60;;
11084;SDS011;5596;46.826;8.650;2022-08-19T00:17:44;5.97;;;3.10;;
11084;SDS011;5596;46.826;8.650;2022-08-19T00:20:14;6.57;;;3.53;;
11084;SDS011;5596;46.826;8.650;2022-08-19T00:22:43;4.07;;;3.13;;
11084;SDS011;5596;46.826;8.650;2022-08-19T00:25:10;3.23;;;2.93;;
11084;SDS011;5596;46.826;8.650;2022-08-19T00:27:38;3.33;;;2.70;;
11084;SDS011;5596;46.826;8.650;2022-08-19T00:30:06;3.57;;;2.60;;
11084;SDS011;5596;46.826;8.650;2022-08-19T00:32:35;5.00;;;2.60;;
11084;SDS011;5596;46.826;8.650;2022-08-19T00:35:02;3.37;;;2.43;;
11084;SDS011;5596;46.826;8.650;2022-08-19T00:37:31;3.10;;;2.60;;
11084;SDS011;5596;46.826;8.650;2022-08-19T00:40:00;3.80;;;2.30;;
11084;SDS011;5596;46.826;8.650;2022-08-19T00:42:29;4.37;;;2.53;;
11084;SDS011;5596;46.826;8.650;2022-08-19T00:44:56;5.03;;;2.53;;
11084;SDS011;5596;46.826;8.650;2022-08-19T00:47:23;3.40;;;1.93;;
11084;SDS011;5596;46.826;8.650;2022-08-19T00:49:50;3.60;;;2.20;;
11084;SDS011;5596;46.826;8.650;2022-08-19T00:52:22;5.63;;;2.10;;
11084;SDS011;5596;46.826;8.650;2022-08-19T00:54:55;4.50;;;2.20;;
11084;SDS011;5596;46.826;8.650;2022-08-19T00:57:24;3.03;;;2.00;;
11084;SDS011;5596;46.826;8.650;2022-08-19T00:59:56;4.50;;;2.20;;
11084;SDS011;5596;46.826;8.650;2022-08-19T01:02:24;2.20;;;1.97;;
11084;SDS011;5596;46.826;8.650;2022-08-19T01:04:53;3.37;;;2.30;;
11084;SDS011;5596;46.826;8.650;2022-08-19T01:07:20;4.83;;;2.43;;
11084;SDS011;5596;46.826;8.650;2022-08-19T01:09:48;2.70;;;2.10;;
11084;SDS011;5596;46.826;8.650;2022-08-19T01:12:17;2.10;;;1.90;;
11084;SDS011;5596;46.826;8.650;2022-08-19T01:14:45;4.63;;;2.30;;
11084;SDS011;5596;46.826;8.650;2022-08-19T01:17:13;2.40;;;2.20;;
11084;SDS011;5596;46.826;8.650;2022-08-19T01:19:42;2.40;;;2.00;;
11084;SDS011;5596;46.826;8.650;2022-08-19T01:22:12;2.20;;;2.00;;
11084;SDS011;5596;46.826;8.650;2022-08-19T01:24:47;3.47;;;1.90;;
11084;SDS011;5596;46.826;8.650;2022-08-19T01:27:15;5.10;;;2.00;;
11084;SDS011;5596;46.826;8.650;2022-08-19T01:29:43;6.20;;;2.20;;
11084;SDS011;5596;46.826;8.650;2022-08-19T01:32:12;3.47;;;1.97;;
11084;SDS011;5596;46.826;8.650;2022-08-19T01:34:40;5.97;;;2.10;;
11084;SDS011;5596;46.826;8.650;2022-08-19T01:37:13;2.50;;;1.90;;
11084;SDS011;5596;46.826;8.650;2022-08-19T01:39:41;2.53;;;1.80;;
11084;SDS011;5596;46.826;8.650;2022-08-19T01:42:11;2.80;;;1.60;;
11084;SDS011;5596;46.826;8.650;2022-08-19T01:44:38;2.00;;;1.70;;
11084;SDS011;5596;46.826;8.650;2022-08-19T01:47:06;2.20;;;1.63;;
11084;SDS011;5596;46.826;8.650;2022-08-19T01:49:34;5.87;;;1.70;;
11084;SDS011;5596;46.826;8.650;2022-08-19T01:52:03;3.27;;;1.60;;
11084;SDS011;5596;46.826;8.650;2022-08-19T01:54:31;6.07;;;1.80;;
11084;SDS011;5596;46.826;8.650;2022-08-19T01:57:00;3.17;;;1.90;;
11084;SDS011;5596;46.826;8.650;2022-08-19T01:59:33;5.20;;;1.90;;
11084;SDS011;5596;46.826;8.650;2022-08-19T02:02:01;3.93;;;2.20;;
11084;SDS011;5596;46.826;8.650;2022-08-19T02:04:32;3.27;;;2.40;;
11084;SDS011;5596;46.826;8.650;2022-08-19T02:07:00;4.47;;;2.20;;
11084;SDS011;5596;46.826;8.650;2022-08-19T02:09:27;3.03;;;2.20;;
11084;SDS011;5596;46.826;8.650;2022-08-19T02:11:54;2.60;;;2.40;;
11084;SDS011;5596;46.826;8.650;2022-08-19T02:14:21;2.50;;;2.30;;
11084;SDS011;5596;46.826;8.650;2022-08-19T02:16:50;3.00;;;2.50;;
11084;SDS011;5596;46.826;8.650;2022-08-19T02:19:17;2.57;;;2.23;;
11084;SDS011;5596;46.826;8.650;2022-08-19T02:21:44;3.83;;;2.57;;
11084;SDS011;5596;46.826;8.650;2022-08-19T02:24:11;6.00;;;3.40;;
11084;SDS011;5596;46.826;8.650;2022-08-19T02:26:38;10.17;;;5.87;;
11084;SDS011;5596;46.826;8.650;2022-08-19T02:29:07;5.70;;;2.70;;
11084;SDS011;5596;46.826;8.650;2022-08-19T02:31:34;3.03;;;2.30;;
11084;SDS011;5596;46.826;8.650;2022-08-19T02:34:02;5.43;;;2.43;;
11084;SDS011;5596;46.826;8.650;2022-08-19T02:36:29;2.90;;;2.30;;
11084;SDS011;5596;46.826;8.650;2022-08-19T02:38:56;4.17;;;2.70;;
11084;SDS011;5596;46.826;8.650;2022-08-19T02:41:24;5.77;;;2.60;;
11084;SDS011;5596;46.826;8.650;2022-08-19T02:43:53;3.30;;;2.10;;
11084;SDS011;5596;46.826;8.650;2022-08-19T02:46:22;2.67;;;2.00;;
11084;SDS011;5596;46.826;8.650;2022-08-19T02:48:53;3.03;;;2.10;;
11084;SDS011;5596;46.826;8.650;2022-08-19T02:51:23;2.90;;;2.20;;
11084;SDS011;5596;46.826;8.650;2022-08-19T02:53:51;2.87;;;2.20;;
11084;SDS011;5596;46.826;8.650;2022-08-19T02:56:19;6.40;;;2.30;;
11084;SDS011;5596;46.826;8.650;2022-08-19T02:58:47;2.80;;;2.50;;
11084;SDS011;5596;46.826;8.650;2022-08-19T03:01:19;3.00;;;2.17;;
11084;SDS011;5596;46.826;8.650;2022-08-19T03:03:47;3.43;;;2.40;;
11084;SDS011;5596;46.826;8.650;2022-08-19T03:06:15;2.50;;;1.90;;
11084;SDS011;5596;46.826;8.650;2022-08-19T03:08:44;5.33;;;2.53;;
11084;SDS011;5596;46.826;8.650;2022-08-19T03:11:13;3.20;;;2.03;;
11084;SDS011;5596;46.826;8.650;2022-08-19T03:13:42;4.97;;;2.10;;
11084;SDS011;5596;46.826;8.650;2022-08-19T03:16:10;3.20;;;2.20;;
11084;SDS011;5596;46.826;8.650;2022-08-19T03:18:38;5.93;;;2.90;;
11084;SDS011;5596;46.826;8.650;2022-08-19T03:21:05;4.57;;;2.80;;
11084;SDS011;5596;46.826;8.650;2022-08-19T03:23:33;4.10;;;2.67;;
11084;SDS011;5596;46.826;8.650;2022-08-19T03:26:04;2.60;;;2.40;;
11084;SDS011;5596;46.826;8.650;2022-08-19T03:28:32;2.60;;;2.40;;
11084;SDS011;5596;46.826;8.650;2022-08-19T03:31:01;3.60;;;2.80;;
11084;SDS011;5596;46.826;8.650;2022-08-19T03:33:30;4.43;;;2.73;;
11084;SDS011;5596;46.826;8.650;2022-08-19T03:36:01;3.77;;;2.67;;
11084;SDS011;5596;46.826;8.650;2022-08-19T03:38:34;3.03;;;2.50;;
11084;SDS011;5596;46.826;8.650;2022-08-19T03:41:03;5.93;;;2.93;;
11084;SDS011;5596;46.826;8.650;2022-08-19T03:43:33;5.67;;;2.90;;
11084;SDS011;5596;46.826;8.650;2022-08-19T03:46:02;2.57;;;2.20;;
11084;SDS011;5596;46.826;8.650;2022-08-19T03:48:30;4.80;;;2.57;;
11084;SDS011;5596;46.826;8.650;2022-08-19T03:50:58;4.13;;;2.60;;
11084;SDS011;5596;46.826;8.650;2022-08-19T03:53:26;4.70;;;2.90;;
11084;SDS011;5596;46.826;8.650;2022-08-19T03:55:53;4.13;;;2.70;;
11084;SDS011;5596;46.826;8.650;2022-08-19T03:58:22;3.80;;;2.93;;
11084;SDS011;5596;46.826;8.650;2022-08-19T04:00:50;4.27;;;3.00;;
11084;SDS011;5596;46.826;8.650;2022-08-19T04:03:17;6.67;;;2.67;;
11084;SDS011;5596;46.826;8.650;2022-08-19T04:05:45;3.47;;;2.20;;
11084;SDS011;5596;46.826;8.650;2022-08-19T04:08:13;5.80;;;2.40;;
11084;SDS011;5596;46.826;8.650;2022-08-19T04:10:40;3.60;;;2.63;;
11084;SDS011;5596;46.826;8.650;2022-08-19T04:13:07;3.43;;;2.57;;
11084;SDS011;5596;46.826;8.650;2022-08-19T04:15:40;5.13;;;2.50;;
11084;SDS011;5596;46.826;8.650;2022-08-19T04:18:08;5.23;;;2.53;;
11084;SDS011;5596;46.826;8.650;2022-08-19T04:20:39;5.77;;;2.90;;
11084;SDS011;5596;46.826;8.650;2022-08-19T04:23:07;4.37;;;2.90;;
11084;SDS011;5596;46.826;8.650;2022-08-19T04:25:35;8.30;;;5.47;;
11084;SDS011;5596;46.826;8.650;2022-08-19T04:28:04;3.67;;;2.70;;
11084;SDS011;5596;46.826;8.650;2022-08-19T04:30:36;4.33;;;2.40;;
11084;SDS011;5596;46.826;8.650;2022-08-19T04:33:07;3.77;;;2.53;;
11084;SDS011;5596;46.826;8.650;2022-08-19T04:35:35;6.37;;;3.00;;
11084;SDS011;5596;46.826;8.650;2022-08-19T04:38:04;4.37;;;2.50;;
11084;SDS011;5596;46.826;8.650;2022-08-19T04:40:32;5.53;;;3.50;;
11084;SDS011;5596;46.826;8.650;2022-08-19T04:43:17;4.27;;;2.80;;
11084;SDS011;5596;46.826;8.650;2022-08-19T04:45:46;2.90;;;2.63;;
11084;SDS011;5596;46.826;8.650;2022-08-19T04:48:13;6.33;;;3.03;;
11084;SDS011;5596;46.826;8.650;2022-08-19T04:50:41;5.37;;;2.77;;
11084;SDS011;5596;46.826;8.650;2022-08-19T04:53:10;3.20;;;2.67;;
11084;SDS011;5596;46.826;8.650;2022-08-19T04:55:40;2.47;;;2.23;;
11084;SDS011;5596;46.826;8.650;2022-08-19T04:58:08;3.00;;;2.33;;
11084;SDS011;5596;46.826;8.650;2022-08-19T05:00:37;4.10;;;2.43;;
11084;SDS011;5596;46.826;8.650;2022-08-19T05:03:06;3.53;;;2.33;;
11084;SDS011;5596;46.826;8.650;2022-08-19T05:05:37;3.60;;;2.60;;
11084;SDS011;5596;46.826;8.650;2022-08-19T05:08:05;3.17;;;2.50;;
11084;SDS011;5596;46.826;8.650;2022-08-19T05:10:34;2.97;;;2.27;;
11084;SDS011;5596;46.826;8.650;2022-08-19T05:13:02;3.93;;;2.73;;
11084;SDS011;5596;46.826;8.650;2022-08-19T05:15:29;3.47;;;2.47;;
11084;SDS011;5596;46.826;8.650;2022-08-19T05:17:57;3.63;;;2.43;;
11084;SDS011;5596;46.826;8.650;2022-08-19T05:20:43;2.73;;;2.43;;
11084;SDS011;5596;46.826;8.650;2022-08-19T05:23:27;2.77;;;2.47;;
11084;SDS011;5596;46.826;8.650;2022-08-19T05:25:54;4.47;;;2.80;;
11084;SDS011;5596;46.826;8.650;2022-08-19T05:28:21;6.80;;;3.20;;
11084;SDS011;5596;46.826;8.650;2022-08-19T05:30:48;2.83;;;2.57;;
11084;SDS011;5596;46.826;8.650;2022-08-19T05:33:16;5.97;;;3.03;;
11084;SDS011;5596;46.826;8.650;2022-08-19T05:35:45;4.43;;;2.70;;
11084;SDS011;5596;46.826;8.650;2022-08-19T05:38:13;4.07;;;2.70;;
11084;SDS011;5596;46.826;8.650;2022-08-19T05:40:40;3.80;;;2.80;;
11084;SDS011;5596;46.826;8.650;2022-08-19T05:43:11;4.37;;;2.67;;
11084;SDS011;5596;46.826;8.650;2022-08-19T05:45:41;3.60;;;2.57;;
11084;SDS011;5596;46.826;8.650;2022-08-19T05:48:09;4.67;;;2.77;;
11084;SDS011;5596;46.826;8.650;2022-08-19T05:50:36;5.03;;;2.83;;
11084;SDS011;5596;46.826;8.650;2022-08-19T05:53:05;3.73;;;2.80;;
11084;SDS011;5596;46.826;8.650;2022-08-19T05:55:34;3.13;;;2.60;;
11084;SDS011;5596;46.826;8.650;2022-08-19T05:58:03;3.50;;;2.90;;
11084;SDS011;5596;46.826;8.650;2022-08-19T06:00:32;3.80;;;2.30;;
11084;SDS011;5596;46.826;8.650;2022-08-19T06:02:59;4.40;;;2.80;;
11084;SDS011;5596;46.826;8.650;2022-08-19T06:05:28;5.00;;;2.90;;
11084;SDS011;5596;46.826;8.650;2022-08-19T06:07:56;3.23;;;2.77;;
11084;SDS011;5596;46.826;8.650;2022-08-19T06:10:25;2.90;;;2.60;;
11084;SDS011;5596;46.826;8.650;2022-08-19T06:12:54;2.77;;;2.27;;
11084;SDS011;5596;46.826;8.650;2022-08-19T06:15:21;3.33;;;3.03;;
11084;SDS011;5596;46.826;8.650;2022-08-19T06:17:50;2.97;;;2.10;;
11084;SDS011;5596;46.826;8.650;2022-08-19T06:20:17;2.60;;;2.20;;
11084;SDS011;5596;46.826;8.650;2022-08-19T06:22:45;4.60;;;2.07;;
11084;SDS011;5596;46.826;8.650;2022-08-19T06:25:15;5.50;;;2.23;;
11084;SDS011;5596;46.826;8.650;2022-08-19T06:27:43;2.30;;;2.10;;
11084;SDS011;5596;46.826;8.650;2022-08-19T06:30:11;2.93;;;2.23;;
11084;SDS011;5596;46.826;8.650;2022-08-19T06:32:39;2.43;;;2.10;;
11084;SDS011;5596;46.826;8.650;2022-08-19T06:35:07;2.30;;;2.10;;
11084;SDS011;5596;46.826;8.650;2022-08-19T06:37:34;4.17;;;2.80;;
11084;SDS011;5596;46.826;8.650;2022-08-19T06:40:03;2.70;;;2.50;;
11084;SDS011;5596;46.826;8.650;2022-08-19T06:42:31;3.47;;;2.60;;
11084;SDS011;5596;46.826;8.650;2022-08-19T06:45:02;3.20;;;2.70;;
11084;SDS011;5596;46.826;8.650;2022-08-19T06:47:30;3.10;;;2.80;;
11084;SDS011;5596;46.826;8.650;2022-08-19T06:49:59;3.20;;;2.63;;
11084;SDS011;5596;46.826;8.650;2022-08-19T06:52:28;3.80;;;3.20;;
11084;SDS011;5596;46.826;8.650;2022-08-19T06:54:55;4.20;;;3.23;;
11084;SDS011;5596;46.826;8.650;2022-08-19T06:57:23;4.20;;;3.37;;
11084;SDS011;5596;46.826;8.650;2022-08-19T06:59:50;4.70;;;3.40;;
11084;SDS011;5596;46.826;8.650;2022-08-19T07:02:19;5.97;;;4.00;;
11084;SDS011;5596;46.826;8.650;2022-08-19T07:04:51;6.37;;;4.50;;
11084;SDS011;5596;46.826;8.650;2022-08-19T07:07:20;5.37;;;4.27;;
11084;SDS011;5596;46.826;8.650;2022-08-19T07:09:48;6.07;;;3.67;;
11084;SDS011;5596;46.826;8.650;2022-08-19T07:12:18;4.80;;;3.97;;
11084;SDS011;5596;46.826;8.650;2022-08-19T07:14:45;4.80;;;3.90;;
11084;SDS011;5596;46.826;8.650;2022-08-19T07:17:14;4.30;;;3.70;;
11084;SDS011;5596;46.826;8.650;2022-08-19T07:19:43;5.27;;;4.43;;
11084;SDS011;5596;46.826;8.650;2022-08-19T07:22:10;5.20;;;4.40;;
11084;SDS011;5596;46.826;8.650;2022-08-19T07:24:37;5.93;;;4.67;;
11084;SDS011;5596;46.826;8.650;2022-08-19T07:27:05;6.00;;;4.70;;
11084;SDS011;5596;46.826;8.650;2022-08-19T07:29:35;6.00;;;4.90;;
11084;SDS011;5596;46.826;8.650;2022-08-19T07:32:03;5.57;;;4.93;;
11084;SDS011;5596;46.826;8.650;2022-08-19T07:34:31;7.03;;;5.17;;
11084;SDS011;5596;46.826;8.650;2022-08-19T07:37:03;7.47;;;5.47;;
11084;SDS011;5596;46.826;8.650;2022-08-19T07:39:32;5.43;;;4.87;;
11084;SDS011;5596;46.826;8.650;2022-08-19T07:42:02;8.10;;;5.63;;
11084;SDS011;5596;46.826;8.650;2022-08-19T07:44:32;6.70;;;5.57;;
11084;SDS011;5596;46.826;8.650;2022-08-19T07:47:00;6.13;;;5.53;;
11084;SDS011;5596;46.826;8.650;2022-08-19T07:49:28;6.03;;;5.30;;
11084;SDS011;5596;46.826;8.650;2022-08-19T07:51:56;7.17;;;5.57;;
11084;SDS011;5596;46.826;8.650;2022-08-19T07:54:28;8.80;;;5.87;;
11084;SDS011;5596;46.826;8.650;2022-08-19T07:56:57;7.43;;;5.77;;
11084;SDS011;5596;46.826;8.650;2022-08-19T07:59:24;9.40;;;6.20;;
11084;SDS011;5596;46.826;8.650;2022-08-19T08:01:53;7.90;;;5.80;;
11084;SDS011;5596;46.826;8.650;2022-08-19T08:04:21;6.53;;;5.83;;
11084;SDS011;5596;46.826;8.650;2022-08-19T08:07:11;7.60;;;5.70;;
11084;SDS011;5596;46.826;8.650;2022-08-19T08:09:57;6.93;;;6.17;;
11084;SDS011;5596;46.826;8.650;2022-08-19T08:12:26;7.47;;;5.80;;
11084;SDS011;5596;46.826;8.650;2022-08-19T08:14:56;7.57;;;5.80;;
11084;SDS011;5596;46.826;8.650;2022-08-19T08:17:27;9.77;;;5.93;;
11084;SDS011;5596;46.826;8.650;2022-08-19T08:19:55;8.10;;;6.00;;
11084;SDS011;5596;46.826;8.650;2022-08-19T08:22:23;6.50;;;5.80;;
11084;SDS011;5596;46.826;8.650;2022-08-19T08:25:07;8.63;;;5.30;;
11084;SDS011;5596;46.826;8.650;2022-08-19T08:27:36;8.50;;;6.10;;
11084;SDS011;5596;46.826;8.650;2022-08-19T08:30:06;7.33;;;6.17;;
11084;SDS011;5596;46.826;8.650;2022-08-19T08:32:35;7.37;;;6.10;;
11084;SDS011;5596;46.826;8.650;2022-08-19T08:35:03;6.80;;;5.97;;
11084;SDS011;5596;46.826;8.650;2022-08-19T08:37:30;8.33;;;6.43;;
11084;SDS011;5596;46.826;8.650;2022-08-19T08:39:57;6.77;;;6.07;;
11084;SDS011;5596;46.826;8.650;2022-08-19T08:42:27;8.10;;;6.23;;
11084;SDS011;5596;46.826;8.650;2022-08-19T08:45:02;7.07;;;5.93;;
11084;SDS011;5596;46.826;8.650;2022-08-19T08:47:37;7.67;;;5.90;;
11084;SDS011;5596;46.826;8.650;2022-08-19T08:50:07;9.57;;;6.70;;
11084;SDS011;5596;46.826;8.650;2022-08-19T08:52:43;6.50;;;5.80;;
11084;SDS011;5596;46.826;8.650;2022-08-19T08:55:13;6.97;;;6.00;;
11084;SDS011;5596;46.826;8.650;2022-08-19T08:57:48;7.00;;;5.63;;
11084;SDS011;5596;46.826;8.650;2022-08-19T09:00:24;7.77;;;5.77;;
11084;SDS011;5596;46.826;8.650;2022-08-19T09:02:52;7.63;;;6.73;;
11084;SDS011;5596;46.826;8.650;2022-08-19T09:05:20;6.57;;;5.70;;
11084;SDS011;5596;46.826;8.650;2022-08-19T09:07:53;8.33;;;6.93;;
11084;SDS011;5596;46.826;8.650;2022-08-19T09:10:28;8.70;;;5.97;;
11084;SDS011;5596;46.826;8.650;2022-08-19T09:13:04;6.90;;;5.67;;
11084;SDS011;5596;46.826;8.650;2022-08-19T09:15:42;7.77;;;6.30;;
11084;SDS011;5596;46.826;8.650;2022-08-19T09:18:14;6.47;;;5.77;;
11084;SDS011;5596;46.826;8.650;2022-08-19T09:20:42;6.10;;;5.50;;
11084;SDS011;5596;46.826;8.650;2022-08-19T09:23:10;8.83;;;6.33;;
11084;SDS011;5596;46.826;8.650;2022-08-19T09:25:37;9.27;;;7.27;;
11084;SDS011;5596;46.826;8.650;2022-08-19T09:28:06;8.47;;;6.37;;
11084;SDS011;5596;46.826;8.650;2022-08-19T09:30:36;7.17;;;6.40;;
11084;SDS011;5596;46.826;8.650;2022-08-19T09:33:06;6.80;;;6.07;;
11084;SDS011;5596;46.826;8.650;2022-08-19T09:35:34;6.83;;;5.97;;
11084;SDS011;5596;46.826;8.650;2022-08-19T09:38:02;8.83;;;6.60;;
11084;SDS011;5596;46.826;8.650;2022-08-19T09:40:29;8.37;;;6.53;;
11084;SDS011;5596;46.826;8.650;2022-08-19T09:42:57;7.93;;;6.27;;
11084;SDS011;5596;46.826;8.650;2022-08-19T09:45:27;10.13;;;7.00;;
11084;SDS011;5596;46.826;8.650;2022-08-19T09:47:54;11.37;;;7.13;;
11084;SDS011;5596;46.826;8.650;2022-08-19T09:50:22;9.50;;;6.60;;
11084;SDS011;5596;46.826;8.650;2022-08-19T09:52:50;8.30;;;6.60;;
11084;SDS011;5596;46.826;8.650;2022-08-19T09:55:19;7.57;;;6.20;;
11084;SDS011;5596;46.826;8.650;2022-08-19T09:57:46;7.20;;;6.20;;
11084;SDS011;5596;46.826;8.650;2022-08-19T10:00:13;6.87;;;5.73;;
11084;SDS011;5596;46.826;8.650;2022-08-19T10:02:42;8.00;;;6.33;;
11084;SDS011;5596;46.826;8.650;2022-08-19T10:05:09;7.67;;;6.47;;
11084;SDS011;5596;46.826;8.650;2022-08-19T10:07:54;7.20;;;6.30;;
11084;SDS011;5596;46.826;8.650;2022-08-19T10:10:20;9.97;;;7.13;;
11084;SDS011;5596;46.826;8.650;2022-08-19T10:12:48;7.77;;;6.97;;
11084;SDS011;5596;46.826;8.650;2022-08-19T10:15:15;8.40;;;6.87;;
11084;SDS011;5596;46.826;8.650;2022-08-19T10:17:47;7.37;;;6.40;;
11084;SDS011;5596;46.826;8.650;2022-08-19T10:20:14;7.80;;;6.73;;
11084;SDS011;5596;46.826;8.650;2022-08-19T10:22:42;7.07;;;5.90;;
11084;SDS011;5596;46.826;8.650;2022-08-19T10:25:09;6.97;;;5.87;;
11084;SDS011;5596;46.826;8.650;2022-08-19T10:27:41;8.90;;;6.33;;
11084;SDS011;5596;46.826;8.650;2022-08-19T10:30:09;6.57;;;5.40;;
11084;SDS011;5596;46.826;8.650;2022-08-19T10:32:37;8.20;;;6.23;;
11084;SDS011;5596;46.826;8.650;2022-08-19T10:35:06;7.60;;;5.77;;
11084;SDS011;5596;46.826;8.650;2022-08-19T10:37:34;6.03;;;5.30;;
11084;SDS011;5596;46.826;8.650;2022-08-19T10:40:03;8.57;;;6.47;;
11084;SDS011;5596;46.826;8.650;2022-08-19T10:42:32;9.37;;;7.10;;
11084;SDS011;5596;46.826;8.650;2022-08-19T10:44:59;6.93;;;6.23;;
11084;SDS011;5596;46.826;8.650;2022-08-19T10:47:26;8.40;;;7.20;;
11084;SDS011;5596;46.826;8.650;2022-08-19T10:49:54;8.93;;;7.00;;
11084;SDS011;5596;46.826;8.650;2022-08-19T10:52:41;7.50;;;6.70;;
11084;SDS011;5596;46.826;8.650;2022-08-19T10:55:10;9.77;;;7.33;;
11084;SDS011;5596;46.826;8.650;2022-08-19T10:57:55;8.00;;;6.87;;
11084;SDS011;5596;46.826;8.650;2022-08-19T11:00:22;7.63;;;6.57;;
11084;SDS011;5596;46.826;8.650;2022-08-19T11:02:50;7.43;;;6.07;;
11084;SDS011;5596;46.826;8.650;2022-08-19T11:05:18;9.03;;;8.10;;
11084;SDS011;5596;46.826;8.650;2022-08-19T11:07:48;7.53;;;6.60;;
11084;SDS011;5596;46.826;8.650;2022-08-19T11:10:16;5.90;;;5.30;;
11084;SDS011;5596;46.826;8.650;2022-08-19T11:12:44;4.77;;;4.00;;
11084;SDS011;5596;46.826;8.650;2022-08-19T11:15:13;7.60;;;5.73;;
11084;SDS011;5596;46.826;8.650;2022-08-19T11:17:40;7.07;;;4.97;;
11084;SDS011;5596;46.826;8.650;2022-08-19T11:20:09;5.60;;;4.43;;
11084;SDS011;5596;46.826;8.650;2022-08-19T11:22:37;4.57;;;3.80;;
11084;SDS011;5596;46.826;8.650;2022-08-19T11:25:07;4.80;;;4.00;;
11084;SDS011;5596;46.826;8.650;2022-08-19T11:27:37;4.47;;;4.00;;
11084;SDS011;5596;46.826;8.650;2022-08-19T11:30:05;6.30;;;4.60;;
11084;SDS011;5596;46.826;8.650;2022-08-19T11:32:33;4.43;;;4.00;;
11084;SDS011;5596;46.826;8.650;2022-08-19T11:35:00;6.10;;;4.57;;
11084;SDS011;5596;46.826;8.650;2022-08-19T11:37:27;6.37;;;4.63;;
11084;SDS011;5596;46.826;8.650;2022-08-19T11:39:54;4.90;;;4.07;;
11084;SDS011;5596;46.826;8.650;2022-08-19T11:42:22;5.53;;;4.70;;
11084;SDS011;5596;46.826;8.650;2022-08-19T11:45:07;6.40;;;5.20;;
11084;SDS011;5596;46.826;8.650;2022-08-19T11:47:35;4.93;;;4.43;;
11084;SDS011;5596;46.826;8.650;2022-08-19T11:50:04;4.87;;;4.10;;
11084;SDS011;5596;46.826;8.650;2022-08-19T11:52:32;5.20;;;3.97;;
11084;SDS011;5596;46.826;8.650;2022-08-19T11:54:59;5.10;;;3.80;;
11084;SDS011;5596;46.826;8.650;2022-08-19T11:57:27;3.80;;;3.43;;
11084;SDS011;5596;46.826;8.650;2022-08-19T11:59:54;3.67;;;3.13;;
11084;SDS011;5596;46.826;8.650;2022-08-19T12:02:21;4.13;;;3.10;;
11084;SDS011;5596;46.826;8.650;2022-08-19T12:04:48;3.90;;;3.50;;
11084;SDS011;5596;46.826;8.650;2022-08-19T12:07:16;3.83;;;3.33;;
11084;SDS011;5596;46.826;8.650;2022-08-19T12:09:43;5.13;;;3.20;;
11084;SDS011;5596;46.826;8.650;2022-08-19T12:12:10;4.30;;;3.83;;
11084;SDS011;5596;46.826;8.650;2022-08-19T12:14:39;4.00;;;3.60;;
11084;SDS011;5596;46.826;8.650;2022-08-19T12:17:06;4.90;;;3.50;;
11084;SDS011;5596;46.826;8.650;2022-08-19T12:19:35;4.20;;;3.80;;
11084;SDS011;5596;46.826;8.650;2022-08-19T12:22:02;5.13;;;4.50;;
11084;SDS011;5596;46.826;8.650;2022-08-19T12:24:31;5.13;;;4.63;;
11084;SDS011;5596;46.826;8.650;2022-08-19T12:26:59;5.23;;;4.73;;
11084;SDS011;5596;46.826;8.650;2022-08-19T12:29:27;5.60;;;4.70;;
11084;SDS011;5596;46.826;8.650;2022-08-19T12:31:57;5.43;;;4.90;;
11084;SDS011;5596;46.826;8.650;2022-08-19T12:34:26;5.57;;;4.70;;
11084;SDS011;5596;46.826;8.650;2022-08-19T12:36:55;4.63;;;3.90;;
11084;SDS011;5596;46.826;8.650;2022-08-19T12:39:22;3.93;;;3.40;;
11084;SDS011;5596;46.826;8.650;2022-08-19T12:41:49;5.80;;;4.27;;
11084;SDS011;5596;46.826;8.650;2022-08-19T12:44:19;5.10;;;4.00;;
11084;SDS011;5596;46.826;8.650;2022-08-19T12:46:46;4.60;;;4.20;;
11084;SDS011;5596;46.826;8.650;2022-08-19T12:49:15;6.87;;;4.63;;
11084;SDS011;5596;46.826;8.650;2022-08-19T12:51:42;5.03;;;4.50;;
11084;SDS011;5596;46.826;8.650;2022-08-19T12:54:09;6.43;;;4.40;;
11084;SDS011;5596;46.826;8.650;2022-08-19T12:56:36;5.23;;;4.43;;
11084;SDS011;5596;46.826;8.650;2022-08-19T12:59:03;7.27;;;4.50;;
11084;SDS011;5596;46.826;8.650;2022-08-19T13:01:33;4.90;;;4.03;;
11084;SDS011;5596;46.826;8.650;2022-08-19T13:04:00;8.00;;;4.10;;
11084;SDS011;5596;46.826;8.650;2022-08-19T13:06:28;4.73;;;4.23;;
11084;SDS011;5596;46.826;8.650;2022-08-19T13:08:55;7.20;;;4.40;;
11084;SDS011;5596;46.826;8.650;2022-08-19T13:11:23;5.10;;;4.20;;
11084;SDS011;5596;46.826;8.650;2022-08-19T13:13:51;4.83;;;4.27;;
11084;SDS011;5596;46.826;8.650;2022-08-19T13:16:20;5.33;;;4.20;;
11084;SDS011;5596;46.826;8.650;2022-08-19T13:18:48;4.27;;;3.87;;
11084;SDS011;5596;46.826;8.650;2022-08-19T13:21:17;4.80;;;4.30;;
11084;SDS011;5596;46.826;8.650;2022-08-19T13:23:51;5.87;;;4.10;;
11084;SDS011;5596;46.826;8.650;2022-08-19T13:26:19;4.30;;;3.90;;
11084;SDS011;5596;46.826;8.650;2022-08-19T13:28:47;5.07;;;4.30;;
11084;SDS011;5596;46.826;8.650;2022-08-19T13:31:32;4.67;;;4.17;;
11084;SDS011;5596;46.826;8.650;2022-08-19T13:34:19;6.10;;;4.70;;
11084;SDS011;5596;46.826;8.650;2022-08-19T13:36:54;5.97;;;4.53;;
11084;SDS011;5596;46.826;8.650;2022-08-19T13:39:22;4.87;;;4.37;;
11084;SDS011;5596;46.826;8.650;2022-08-19T13:41:49;5.47;;;4.53;;
11084;SDS011;5596;46.826;8.650;2022-08-19T13:44:16;4.67;;;4.13;;
11084;SDS011;5596;46.826;8.650;2022-08-19T13:46:44;4.87;;;3.73;;
11084;SDS011;5596;46.826;8.650;2022-08-19T13:49:12;4.37;;;3.97;;
11084;SDS011;5596;46.826;8.650;2022-08-19T13:51:40;4.30;;;3.90;;
11084;SDS011;5596;46.826;8.650;2022-08-19T13:54:08;4.33;;;3.93;;
11084;SDS011;5596;46.826;8.650;2022-08-19T13:56:40;4.87;;;3.90;;
11084;SDS011;5596;46.826;8.650;2022-08-19T13:59:09;5.40;;;4.90;;
11084;SDS011;5596;46.826;8.650;2022-08-19T14:01:37;12.47;;;11.37;;
11084;SDS011;5596;46.826;8.650;2022-08-19T14:04:04;8.37;;;5.07;;
11084;SDS011;5596;46.826;8.650;2022-08-19T14:06:32;6.03;;;5.20;;
11084;SDS011;5596;46.826;8.650;2022-08-19T14:08:59;5.07;;;4.57;;
11084;SDS011;5596;46.826;8.650;2022-08-19T14:11:27;5.07;;;4.33;;
11084;SDS011;5596;46.826;8.650;2022-08-19T14:13:56;5.53;;;4.63;;
11084;SDS011;5596;46.826;8.650;2022-08-19T14:16:23;6.70;;;4.43;;
11084;SDS011;5596;46.826;8.650;2022-08-19T14:18:52;6.20;;;4.53;;
11084;SDS011;5596;46.826;8.650;2022-08-19T14:21:20;4.87;;;4.37;;
11084;SDS011;5596;46.826;8.650;2022-08-19T14:23:50;5.93;;;4.50;;
11084;SDS011;5596;46.826;8.650;2022-08-19T14:26:18;5.90;;;4.17;;
11084;SDS011;5596;46.826;8.650;2022-08-19T14:28:46;6.53;;;4.73;;
11084;SDS011;5596;46.826;8.650;2022-08-19T14:31:16;5.50;;;4.47;;
11084;SDS011;5596;46.826;8.650;2022-08-19T14:33:45;5.83;;;4.43;;
11084;SDS011;5596;46.826;8.650;2022-08-19T14:36:13;5.83;;;4.40;;
11084;SDS011;5596;46.826;8.650;2022-08-19T14:38:40;8.50;;;5.03;;
11084;SDS011;5596;46.826;8.650;2022-08-19T14:41:09;7.00;;;5.20;;
11084;SDS011;5596;46.826;8.650;2022-08-19T14:43:38;5.93;;;4.63;;
11084;SDS011;5596;46.826;8.650;2022-08-19T14:46:06;5.63;;;4.70;;
11084;SDS011;5596;46.826;8.650;2022-08-19T14:48:36;6.47;;;5.07;;
11084;SDS011;5596;46.826;8.650;2022-08-19T14:51:04;6.00;;;4.97;;
11084;SDS011;5596;46.826;8.650;2022-08-19T14:53:31;8.67;;;5.80;;
11084;SDS011;5596;46.826;8.650;2022-08-19T14:56:00;8.17;;;5.30;;
11084;SDS011;5596;46.826;8.650;2022-08-19T14:58:27;6.30;;;5.20;;
11084;SDS011;5596;46.826;8.650;2022-08-19T15:00:54;7.63;;;5.90;;
11084;SDS011;5596;46.826;8.650;2022-08-19T15:03:21;10.20;;;6.40;;
11084;SDS011;5596;46.826;8.650;2022-08-19T15:05:50;7.00;;;6.10;;
11084;SDS011;5596;46.826;8.650;2022-08-19T15:08:17;6.40;;;5.77;;
11084;SDS011;5596;46.826;8.650;2022-08-19T15:10:48;7.23;;;6.00;;